Time;durP1;ratioP1;P1;durP2;ratioP2;P2;SDS_P1;SDS_P2;PMS_P1;PMS_P2;Temp;Humidity;BMP_temperature;BMP_pressure;BME280_temperature;BME280_humidity;BME280_pressure;Samples;Min_cycle;Max_cycle;Signal;HPM_P1;HPM_P2
2023/12/09 00:01:16;;;;;;;14.77;14.23;;;7.80;99.90;;;;;;5073290;28;20671;-64
2023/12/09 00:03:43;;;;;;;12.50;12.10;;;7.80;99.90;;;;;;5075059;28;20199;-64
2023/12/09 00:06:10;;;;;;;13.67;13.17;;;7.70;99.90;;;;;;5073707;28;20328;-64
2023/12/09 00:08:38;;;;;;;13.90;13.40;;;7.70;99.90;;;;;;5073385;28;20227;-64
2023/12/09 00:11:05;;;;;;;14.23;13.73;;;7.70;99.90;;;;;;5074873;28;20207;-64
2023/12/09 00:13:33;;;;;;;13.73;13.23;;;7.70;99.90;;;;;;5073912;28;20207;-65
2023/12/09 00:16:00;;;;;;;14.07;13.57;;;7.70;99.90;;;;;;5073255;28;20618;-64
2023/12/09 00:18:27;;;;;;;13.90;13.40;;;7.90;99.90;;;;;;5074263;28;20253;-64
2023/12/09 00:20:54;;;;;;;14.30;13.80;;;7.80;99.90;;;;;;5073713;28;20678;-64
2023/12/09 00:23:21;;;;;;;15.53;14.93;;;7.80;99.90;;;;;;5072789;28;20287;-64
2023/12/09 00:25:48;;;;;;;14.17;13.67;;;7.80;99.90;;;;;;5072764;28;20246;-64
2023/12/09 00:28:15;;;;;;;15.20;14.60;;;7.80;99.90;;;;;;5071970;28;20685;-64
2023/12/09 00:30:43;;;;;;;13.90;13.40;;;7.70;99.90;;;;;;5071891;28;20600;-64
2023/12/09 00:33:10;;;;;;;13.47;12.97;;;7.70;99.90;;;;;;5073255;28;20211;-65
2023/12/09 00:35:37;;;;;;;14.23;13.73;;;7.60;99.90;;;;;;5072311;28;20203;-64
2023/12/09 00:38:03;;;;;;;13.63;13.13;;;7.70;99.90;;;;;;5071780;28;20206;-65
2023/12/09 00:40:31;;;;;;;13.80;13.20;;;7.70;99.90;;;;;;5075955;28;20203;-65
2023/12/09 00:42:57;;;;;;;13.67;13.10;;;7.70;99.90;;;;;;5072351;28;20199;-65
2023/12/09 00:45:25;;;;;;;13.60;13.10;;;7.70;99.90;;;;;;5064268;28;20219;-66
2023/12/09 00:47:53;;;;;;;13.50;13.00;;;7.70;99.90;;;;;;5072561;28;20230;-64
2023/12/09 00:50:19;;;;;;;13.80;13.30;;;7.80;99.90;;;;;;5072877;28;20302;-66
2023/12/09 00:52:46;;;;;;;14.07;13.57;;;7.80;99.90;;;;;;5072747;28;20692;-64
2023/12/09 00:55:13;;;;;;;13.70;13.20;;;7.80;99.90;;;;;;5072431;28;20199;-65
2023/12/09 00:57:39;;;;;;;13.90;13.40;;;7.80;99.90;;;;;;5070140;28;20706;-66
2023/12/09 01:00:07;;;;;;;14.00;13.50;;;7.80;99.90;;;;;;5071811;28;20215;-65
2023/12/09 01:02:34;;;;;;;13.23;12.73;;;7.80;99.90;;;;;;5072093;28;20211;-65
2023/12/09 01:05:02;;;;;;;13.17;12.67;;;7.80;99.90;;;;;;5072109;28;20219;-65
2023/12/09 01:07:28;;;;;;;13.27;12.83;;;7.80;99.90;;;;;;5072218;28;20235;-67
2023/12/09 01:09:55;;;;;;;13.33;12.83;;;7.80;99.90;;;;;;5088066;28;20195;-65
2023/12/09 01:12:22;;;;;;;13.77;13.27;;;7.80;99.90;;;;;;5079730;28;20203;-66
2023/12/09 01:14:48;;;;;;;13.50;13.00;;;7.90;99.90;;;;;;5077681;28;20823;-65
2023/12/09 01:17:15;;;;;;;13.50;13.00;;;7.90;99.90;;;;;;5076648;28;20227;-65
2023/12/09 01:19:42;;;;;;;13.53;13.03;;;8.00;99.90;;;;;;5076129;28;20211;-65
2023/12/09 01:22:10;;;;;;;13.43;12.93;;;8.00;99.90;;;;;;5075888;28;20282;-67
2023/12/09 01:24:37;;;;;;;13.47;12.97;;;8.00;99.90;;;;;;5075803;28;20672;-66
2023/12/09 01:27:03;;;;;;;13.30;12.80;;;8.00;99.90;;;;;;5075689;28;20234;-65
2023/12/09 01:29:30;;;;;;;13.60;13.10;;;8.00;99.90;;;;;;5075289;28;20238;-65
2023/12/09 01:31:57;;;;;;;14.00;13.50;;;8.00;99.90;;;;;;5075512;28;20582;-65
2023/12/09 01:34:24;;;;;;;13.77;13.27;;;8.00;99.90;;;;;;5076419;28;20206;-66
2023/12/09 01:36:50;;;;;;;13.93;13.23;;;8.00;99.90;;;;;;5075309;28;20596;-64
2023/12/09 01:39:18;;;;;;;13.70;13.20;;;8.00;99.90;;;;;;5075261;28;20200;-66
2023/12/09 01:41:45;;;;;;;13.60;13.10;;;8.00;99.90;;;;;;5075528;28;20558;-64
2023/12/09 01:44:12;;;;;;;13.63;13.13;;;8.00;99.90;;;;;;5074938;28;20211;-64
2023/12/09 01:46:39;;;;;;;13.13;12.73;;;7.90;99.90;;;;;;5075255;28;20324;-65
2023/12/09 01:49:06;;;;;;;13.70;13.20;;;7.90;99.90;;;;;;5075083;28;20638;-65
2023/12/09 01:51:35;;;;;;;13.77;13.27;;;7.90;99.90;;;;;;5075043;28;20276;-66
2023/12/09 01:54:02;;;;;;;13.47;12.97;;;7.90;99.90;;;;;;5075453;28;20693;-65
2023/12/09 01:56:30;;;;;;;13.40;12.90;;;7.80;99.90;;;;;;5074983;28;20230;-66
2023/12/09 01:58:57;;;;;;;13.80;13.30;;;7.80;99.90;;;;;;5075698;28;20196;-65
2023/12/09 02:01:26;;;;;;;13.77;13.27;;;7.80;99.90;;;;;;5066661;28;20210;-65
2023/12/09 02:03:53;;;;;;;13.63;13.13;;;7.70;99.90;;;;;;5074951;28;20199;-64
2023/12/09 02:06:20;;;;;;;13.87;13.37;;;7.70;99.90;;;;;;5075396;28;20223;-64
2023/12/09 02:08:47;;;;;;;14.07;13.57;;;7.70;99.90;;;;;;5074668;28;20219;-65
2023/12/09 02:11:22;;;;;;;13.97;13.47;;;7.70;99.90;;;;;;5074538;28;20203;-65
2023/12/09 02:13:59;;;;;;;13.80;13.30;;;7.70;99.90;;;;;;5074724;28;20205;-65
2023/12/09 02:16:35;;;;;;;13.43;12.93;;;7.80;99.90;;;;;;5067052;28;20234;-65
2023/12/09 02:19:02;;;;;;;13.40;12.90;;;7.80;99.90;;;;;;5074388;28;20203;-65
2023/12/09 02:21:29;;;;;;;13.60;13.10;;;7.80;99.90;;;;;;5074251;28;20215;-65
2023/12/09 02:23:57;;;;;;;13.43;12.93;;;7.80;99.90;;;;;;5074207;28;20207;-66
2023/12/09 02:26:26;;;;;;;13.50;13.00;;;7.80;99.90;;;;;;5072834;28;20227;-64
2023/12/09 02:28:59;;;;;;;13.50;13.00;;;7.70;99.90;;;;;;5072411;28;20298;-65
2023/12/09 02:31:30;;;;;;;13.47;12.97;;;7.70;99.90;;;;;;5071505;28;20194;-65
2023/12/09 02:33:57;;;;;;;13.20;12.70;;;7.70;99.90;;;;;;5071474;28;20211;-65
2023/12/09 02:36:27;;;;;;;13.30;12.80;;;7.70;99.90;;;;;;5062011;28;20226;-66
2023/12/09 02:38:55;;;;;;;13.87;13.37;;;7.70;99.90;;;;;;5070588;28;20697;-64
2023/12/09 02:41:24;;;;;;;14.40;13.90;;;7.70;99.90;;;;;;5069934;28;20214;-65
2023/12/09 02:43:51;;;;;;;14.33;13.83;;;7.60;99.90;;;;;;5072985;28;20210;-65
2023/12/09 02:46:18;;;;;;;13.43;12.93;;;7.60;99.90;;;;;;5074657;28;20227;-64
2023/12/09 02:48:45;;;;;;;13.73;13.23;;;7.60;99.90;;;;;;5077085;28;20235;-65
2023/12/09 02:51:11;;;;;;;13.53;13.03;;;7.50;99.90;;;;;;5081920;28;20214;-64
2023/12/09 02:53:38;;;;;;;13.93;13.43;;;7.50;99.90;;;;;;5076638;28;20200;-65
2023/12/09 02:56:06;;;;;;;13.97;13.47;;;7.50;99.90;;;;;;5074464;28;20227;-64
2023/12/09 02:58:34;;;;;;;13.73;13.23;;;7.50;99.90;;;;;;5074686;28;20203;-65
2023/12/09 03:01:00;;;;;;;14.20;13.60;;;7.50;99.90;;;;;;5074280;28;20213;-64
2023/12/09 03:03:27;;;;;;;13.23;12.73;;;7.50;99.90;;;;;;5073972;28;20208;-65
2023/12/09 03:05:54;;;;;;;13.27;12.77;;;7.60;99.90;;;;;;5073394;28;20223;-66
2023/12/09 03:08:20;;;;;;;13.27;12.77;;;7.60;99.90;;;;;;5073275;28;20231;-65
2023/12/09 03:10:47;;;;;;;13.27;12.77;;;7.60;99.90;;;;;;5073841;28;20580;-66
2023/12/09 03:13:14;;;;;;;13.40;12.90;;;7.60;99.90;;;;;;5074308;28;20222;-64
2023/12/09 03:15:42;;;;;;;13.43;12.93;;;7.60;99.90;;;;;;5073615;28;20216;-66
2023/12/09 03:18:09;;;;;;;13.60;13.10;;;7.60;99.90;;;;;;5071932;28;20203;-64
2023/12/09 03:20:35;;;;;;;13.53;13.00;;;7.60;99.90;;;;;;5073554;28;20199;-65
2023/12/09 03:23:02;;;;;;;13.27;12.77;;;7.60;99.90;;;;;;5074496;28;20557;-65
2023/12/09 03:25:29;;;;;;;13.50;13.00;;;7.60;99.90;;;;;;5075524;28;20203;-65
2023/12/09 03:27:56;;;;;;;14.00;13.50;;;7.50;99.90;;;;;;5077690;28;20203;-66
2023/12/09 03:30:22;;;;;;;13.33;12.83;;;7.50;99.90;;;;;;5075920;28;20199;-65
2023/12/09 03:32:50;;;;;;;13.17;12.67;;;7.50;99.90;;;;;;5078834;28;20689;-65
2023/12/09 03:35:17;;;;;;;13.40;12.90;;;7.50;99.90;;;;;;5077238;28;20561;-65
2023/12/09 03:37:44;;;;;;;13.60;13.10;;;7.40;99.90;;;;;;5078113;28;20226;-67
2023/12/09 03:40:12;;;;;;;13.40;12.90;;;7.50;99.90;;;;;;5076123;28;20198;-65
2023/12/09 03:42:38;;;;;;;13.50;13.00;;;7.50;99.90;;;;;;5076385;28;20234;-65
2023/12/09 03:45:06;;;;;;;13.70;13.20;;;7.40;99.90;;;;;;5075632;28;20198;-65
2023/12/09 03:47:33;;;;;;;13.50;13.00;;;7.50;99.90;;;;;;5075973;28;20245;-64
2023/12/09 03:50:02;;;;;;;13.67;13.17;;;7.50;99.90;;;;;;5075573;28;20705;-65
2023/12/09 03:52:29;;;;;;;14.07;13.57;;;7.50;99.90;;;;;;5072960;28;20225;-66
2023/12/09 03:54:55;;;;;;;14.10;13.60;;;7.50;99.90;;;;;;5072771;28;20218;-66
2023/12/09 03:57:22;;;;;;;14.20;13.70;;;7.50;99.90;;;;;;5072224;28;20223;-64
2023/12/09 03:59:49;;;;;;;13.50;13.00;;;7.50;99.90;;;;;;5072743;28;20573;-65
2023/12/09 04:02:15;;;;;;;13.30;12.80;;;7.60;99.90;;;;;;5068130;28;20200;-64
2023/12/09 04:04:42;;;;;;;13.20;12.70;;;7.60;99.90;;;;;;5072705;28;20207;-64
2023/12/09 04:07:10;;;;;;;13.60;13.10;;;7.60;99.90;;;;;;5073207;28;20223;-64
2023/12/09 04:09:37;;;;;;;13.37;12.87;;;7.70;99.90;;;;;;5072579;28;20230;-66
2023/12/09 04:12:04;;;;;;;13.30;12.80;;;7.70;99.90;;;;;;5073334;28;20207;-66
2023/12/09 04:14:31;;;;;;;12.93;12.43;;;7.80;99.90;;;;;;5072472;28;20210;-66
2023/12/09 04:16:58;;;;;;;13.50;13.00;;;7.80;99.90;;;;;;5072754;28;20227;-65
2023/12/09 04:19:25;;;;;;;13.43;12.90;;;7.80;99.90;;;;;;5066869;28;20207;-65
2023/12/09 04:21:51;;;;;;;13.33;12.83;;;7.90;99.90;;;;;;5073671;28;20207;-64
2023/12/09 04:24:20;;;;;;;13.10;12.60;;;7.90;99.90;;;;;;5072960;28;20735;-67
2023/12/09 04:26:46;;;;;;;13.00;12.60;;;7.90;99.90;;;;;;5072243;28;20219;-64
2023/12/09 04:29:13;;;;;;;13.50;13.00;;;8.00;99.90;;;;;;5080724;28;20219;-65
2023/12/09 04:31:40;;;;;;;13.10;12.60;;;7.90;99.90;;;;;;5077199;28;20215;-66
2023/12/09 04:34:07;;;;;;;13.07;12.57;;;7.90;99.90;;;;;;5072065;28;20200;-65
2023/12/09 04:36:33;;;;;;;13.47;12.97;;;8.00;99.90;;;;;;5074307;28;20267;-65
2023/12/09 04:39:00;;;;;;;13.80;13.30;;;8.00;99.90;;;;;;5073037;28;20202;-65
2023/12/09 04:41:28;;;;;;;13.47;12.97;;;8.00;99.90;;;;;;5071391;28;20207;-66
2023/12/09 04:43:55;;;;;;;13.47;12.87;;;8.00;99.90;;;;;;5071403;28;20287;-67
2023/12/09 04:46:21;;;;;;;13.13;12.63;;;8.00;99.90;;;;;;5074000;28;20255;-66
2023/12/09 04:48:48;;;;;;;13.30;12.80;;;8.00;99.90;;;;;;5080049;28;20219;-66
2023/12/09 04:51:15;;;;;;;13.47;12.97;;;8.00;99.90;;;;;;5077740;28;20199;-66
2023/12/09 04:53:42;;;;;;;13.90;13.40;;;8.00;99.90;;;;;;5084126;28;20203;-65
2023/12/09 04:56:10;;;;;;;13.53;13.03;;;8.00;99.90;;;;;;5078890;28;20222;-65
2023/12/09 04:58:38;;;;;;;14.00;13.40;;;8.00;99.90;;;;;;5077445;28;20203;-66
2023/12/09 05:01:05;;;;;;;13.73;13.23;;;8.00;99.90;;;;;;5077135;28;20207;-66
2023/12/09 05:03:31;;;;;;;13.63;13.13;;;8.00;99.90;;;;;;5076471;28;20203;-65
2023/12/09 05:05:59;;;;;;;13.53;13.03;;;8.10;99.90;;;;;;5078089;28;20219;-65
2023/12/09 05:08:25;;;;;;;13.80;13.30;;;8.00;99.90;;;;;;5082064;28;20199;-65
2023/12/09 05:10:52;;;;;;;13.73;13.23;;;8.10;99.90;;;;;;5079777;28;20266;-65
2023/12/09 05:13:19;;;;;;;14.00;13.50;;;8.20;99.90;;;;;;5082879;28;20207;-65
2023/12/09 05:15:48;;;;;;;13.80;13.30;;;8.10;99.90;;;;;;5083167;28;20203;-65
2023/12/09 05:18:14;;;;;;;13.10;12.70;;;8.10;99.90;;;;;;5078834;28;20203;-65
2023/12/09 05:20:41;;;;;;;13.90;13.40;;;8.10;99.90;;;;;;5081345;28;20270;-64
2023/12/09 05:23:08;;;;;;;13.80;13.30;;;8.10;99.90;;;;;;5076715;28;20203;-64
2023/12/09 05:25:35;;;;;;;13.37;12.87;;;8.10;99.90;;;;;;5075666;28;20208;-65
2023/12/09 05:28:02;;;;;;;13.20;12.70;;;8.10;99.90;;;;;;5075701;28;20206;-64
2023/12/09 05:30:29;;;;;;;13.80;13.30;;;8.10;99.90;;;;;;5075902;28;20677;-65
2023/12/09 05:32:57;;;;;;;13.93;13.33;;;8.10;99.90;;;;;;5075394;28;20199;-65
2023/12/09 05:35:24;;;;;;;13.63;13.13;;;8.10;99.90;;;;;;5075299;28;20192;-65
2023/12/09 05:37:51;;;;;;;13.60;13.10;;;8.10;99.90;;;;;;5075694;28;20223;-65
2023/12/09 05:40:18;;;;;;;14.40;13.90;;;8.10;99.90;;;;;;5074563;28;20226;-66
2023/12/09 05:42:44;;;;;;;13.93;13.43;;;8.10;99.90;;;;;;5075113;28;20208;-65
2023/12/09 05:45:11;;;;;;;13.60;13.00;;;8.10;99.90;;;;;;5075150;28;20191;-66
2023/12/09 05:47:38;;;;;;;13.50;13.00;;;8.10;99.90;;;;;;5075353;28;20283;-65
2023/12/09 05:50:07;;;;;;;13.37;12.87;;;8.10;99.90;;;;;;5074899;28;20227;-66
2023/12/09 05:52:34;;;;;;;13.53;13.03;;;8.10;99.90;;;;;;5075036;28;20215;-65
2023/12/09 05:55:01;;;;;;;13.30;12.80;;;8.10;99.90;;;;;;5074571;28;20207;-65
2023/12/09 05:57:28;;;;;;;13.70;13.20;;;8.20;99.90;;;;;;5074866;28;20223;-64
2023/12/09 05:59:55;;;;;;;13.17;12.67;;;8.20;99.90;;;;;;5075120;28;20203;-65
2023/12/09 06:02:22;;;;;;;14.00;13.47;;;8.10;99.90;;;;;;5075508;28;20218;-66
2023/12/09 06:04:48;;;;;;;14.07;13.57;;;8.10;99.90;;;;;;5075624;28;20214;-64
2023/12/09 06:07:16;;;;;;;13.90;13.40;;;8.10;99.90;;;;;;5075522;28;20698;-66
2023/12/09 06:09:44;;;;;;;13.50;13.00;;;8.10;99.90;;;;;;5086286;28;20705;-65
2023/12/09 06:12:11;;;;;;;13.43;12.93;;;8.10;99.90;;;;;;5086125;28;20213;-65
2023/12/09 06:14:37;;;;;;;13.73;13.23;;;8.10;99.90;;;;;;5077460;28;20207;-65
2023/12/09 06:17:04;;;;;;;13.13;12.63;;;8.10;99.90;;;;;;5076023;28;20227;-66
2023/12/09 06:19:31;;;;;;;13.87;13.37;;;8.10;99.90;;;;;;5075049;28;20644;-64
2023/12/09 06:21:57;;;;;;;14.13;13.63;;;8.10;99.90;;;;;;5073674;28;20203;-65
2023/12/09 06:24:25;;;;;;;14.30;13.70;;;8.00;99.90;;;;;;5074236;28;20211;-65
2023/12/09 06:26:53;;;;;;;14.27;13.77;;;8.10;99.90;;;;;;5073780;28;20606;-65
2023/12/09 06:29:20;;;;;;;14.47;13.97;;;8.10;99.90;;;;;;5074114;28;20238;-66
2023/12/09 06:31:46;;;;;;;13.83;13.33;;;8.10;99.90;;;;;;5073501;28;20222;-66
2023/12/09 06:34:13;;;;;;;14.03;13.53;;;8.10;99.90;;;;;;5073652;28;20211;-65
2023/12/09 06:36:40;;;;;;;13.30;12.80;;;8.10;99.90;;;;;;5073464;28;20713;-65
2023/12/09 06:39:06;;;;;;;14.57;13.97;;;8.20;99.90;;;;;;5073280;28;20234;-65
2023/12/09 06:41:39;;;;;;;13.90;13.40;;;8.20;99.90;;;;;;5073360;28;20218;-65
2023/12/09 06:44:05;;;;;;;13.90;13.30;;;8.20;99.90;;;;;;5073802;28;20222;-65
2023/12/09 06:46:32;;;;;;;13.80;13.30;;;8.20;99.90;;;;;;5074007;28;20231;-64
2023/12/09 06:48:59;;;;;;;14.07;13.57;;;8.30;99.90;;;;;;5073976;28;20214;-65
2023/12/09 06:51:25;;;;;;;13.80;13.30;;;8.30;99.90;;;;;;5065598;28;20207;-66
2023/12/09 06:53:52;;;;;;;14.07;13.37;;;8.30;99.90;;;;;;5074052;28;20690;-66
2023/12/09 06:56:19;;;;;;;14.07;13.47;;;8.30;99.90;;;;;;5075126;28;20243;-65
2023/12/09 06:58:47;;;;;;;13.57;13.07;;;8.30;99.90;;;;;;5073845;28;20209;-65
2023/12/09 07:01:21;;;;;;;13.57;13.07;;;8.30;99.90;;;;;;5073350;28;20203;-65
2023/12/09 07:03:48;;;;;;;14.10;13.60;;;8.30;99.90;;;;;;5073871;28;20260;-66
2023/12/09 07:06:16;;;;;;;13.77;13.27;;;8.30;99.90;;;;;;5073817;28;20231;-65
2023/12/09 07:08:43;;;;;;;13.17;12.67;;;8.30;99.90;;;;;;5073514;28;20210;-65
2023/12/09 07:11:10;;;;;;;13.70;13.20;;;8.30;99.90;;;;;;5072524;28;20234;-66
2023/12/09 07:13:38;;;;;;;13.30;12.80;;;8.30;99.90;;;;;;5073386;28;20211;-66
2023/12/09 07:16:08;;;;;;;13.60;13.10;;;8.40;99.90;;;;;;5073163;28;20253;-65
2023/12/09 07:18:35;;;;;;;14.03;13.43;;;8.30;99.90;;;;;;5073143;28;20230;-66
2023/12/09 07:21:02;;;;;;;14.17;13.57;;;8.30;99.90;;;;;;5073049;28;20207;-66
2023/12/09 07:23:29;;;;;;;13.00;12.50;;;8.30;99.90;;;;;;5073123;28;20203;-65
2023/12/09 07:25:56;;;;;;;13.57;13.07;;;8.30;99.90;;;;;;5072693;28;20620;-65
2023/12/09 07:28:23;;;;;;;13.70;13.20;;;8.30;99.90;;;;;;5072941;28;20206;-64
2023/12/09 07:30:49;;;;;;;13.93;13.43;;;8.30;99.90;;;;;;5072948;28;20230;-65
2023/12/09 07:33:17;;;;;;;13.27;12.77;;;8.30;99.90;;;;;;5072516;28;20822;-65
2023/12/09 07:35:44;;;;;;;13.10;12.60;;;8.30;99.90;;;;;;5072399;28;20254;-65
2023/12/09 07:38:11;;;;;;;14.87;14.27;;;8.30;99.90;;;;;;5072777;28;20246;-65
2023/12/09 07:40:38;;;;;;;14.27;13.73;;;8.30;99.90;;;;;;5072229;28;20206;-65
2023/12/09 07:43:05;;;;;;;14.40;13.80;;;8.30;99.90;;;;;;5072362;28;20222;-65
2023/12/09 07:45:31;;;;;;;14.07;13.57;;;8.40;99.90;;;;;;5071892;28;20265;-65
2023/12/09 07:47:58;;;;;;;13.80;13.30;;;8.40;99.90;;;;;;5072164;28;20581;-64
2023/12/09 07:50:26;;;;;;;14.40;13.80;;;8.40;99.90;;;;;;5071610;28;20231;-64
2023/12/09 07:52:53;;;;;;;14.60;14.07;;;8.40;99.90;;;;;;5081013;28;20249;-65
2023/12/09 07:55:20;;;;;;;14.40;13.80;;;8.40;99.90;;;;;;5079863;28;20590;-65
2023/12/09 07:57:47;;;;;;;13.70;13.20;;;8.50;99.90;;;;;;5071773;28;20234;-65
2023/12/09 08:00:15;;;;;;;14.03;13.53;;;8.50;99.90;;;;;;5072133;28;20214;-64
2023/12/09 08:02:41;;;;;;;14.60;14.10;;;8.60;99.90;;;;;;5072846;28;20214;-64
2023/12/09 08:05:08;;;;;;;14.53;13.93;;;8.50;99.90;;;;;;5072448;28;20207;-64
2023/12/09 08:07:36;;;;;;;14.03;13.53;;;8.60;99.90;;;;;;5072912;28;20238;-65
2023/12/09 08:10:03;;;;;;;15.13;14.57;;;8.60;99.90;;;;;;5072171;28;20234;-66
2023/12/09 08:12:31;;;;;;;14.40;13.90;;;8.60;99.90;;;;;;5072460;28;20658;-64
2023/12/09 08:14:58;;;;;;;14.20;13.70;;;8.60;99.90;;;;;;5072745;28;20244;-64
2023/12/09 08:17:24;;;;;;;14.33;13.83;;;8.70;99.90;;;;;;5071975;28;20646;-64
2023/12/09 08:19:51;;;;;;;14.30;13.73;;;8.70;99.90;;;;;;5079007;28;20215;-65
2023/12/09 08:22:18;;;;;;;14.60;14.10;;;8.80;99.90;;;;;;5074225;28;20203;-64
2023/12/09 08:24:46;;;;;;;14.80;14.30;;;8.90;99.90;;;;;;5072565;28;20210;-65
2023/12/09 08:27:12;;;;;;;15.30;14.77;;;8.90;99.90;;;;;;5071622;28;20646;-65
2023/12/09 08:29:39;;;;;;;14.53;14.03;;;9.00;99.90;;;;;;5071589;28;20223;-64
2023/12/09 08:32:06;;;;;;;15.07;14.53;;;8.90;99.90;;;;;;5072343;28;20245;-64
2023/12/09 08:34:33;;;;;;;14.83;14.33;;;9.00;99.90;;;;;;5078872;28;20880;-65
2023/12/09 08:37:00;;;;;;;15.00;14.50;;;9.00;99.90;;;;;;5075615;28;20223;-64
2023/12/09 08:39:26;;;;;;;15.20;14.60;;;9.00;99.90;;;;;;5076616;28;20211;-65
2023/12/09 08:41:54;;;;;;;14.80;14.30;;;9.00;99.90;;;;;;5077125;28;20219;-64
2023/12/09 08:44:21;;;;;;;14.10;13.60;;;9.10;99.90;;;;;;5077526;28;20277;-63
2023/12/09 08:46:48;;;;;;;14.43;13.93;;;9.10;99.90;;;;;;5076822;28;20219;-65
2023/12/09 08:49:15;;;;;;;15.30;14.80;;;9.20;99.90;;;;;;5072224;28;20207;-64
2023/12/09 08:51:45;;;;;;;14.33;13.83;;;9.20;99.90;;;;;;5067751;28;20231;-64
2023/12/09 08:54:12;;;;;;;15.23;14.70;;;9.30;99.90;;;;;;5073516;28;20238;-68
2023/12/09 08:56:39;;;;;;;14.90;14.40;;;9.30;99.90;;;;;;5070673;28;20251;-65
2023/12/09 08:59:08;;;;;;;15.33;14.73;;;9.40;99.90;;;;;;5067479;28;20207;-63
2023/12/09 09:01:35;;;;;;;15.10;14.50;;;9.40;99.90;;;;;;5067029;28;20273;-65
2023/12/09 09:04:02;;;;;;;14.80;14.30;;;9.40;99.90;;;;;;5068363;28;20199;-64
2023/12/09 09:06:29;;;;;;;13.70;13.20;;;9.40;99.90;;;;;;5071327;28;20647;-65
2023/12/09 09:08:55;;;;;;;13.90;13.40;;;9.50;99.90;;;;;;5070084;28;20580;-65
2023/12/09 09:11:22;;;;;;;12.47;12.07;;;9.50;99.90;;;;;;5070987;28;20218;-65
2023/12/09 09:13:49;;;;;;;12.10;11.70;;;9.50;99.90;;;;;;5071454;28;20208;-64
2023/12/09 09:16:17;;;;;;;12.40;12.00;;;9.50;99.90;;;;;;5071762;28;20235;-63
2023/12/09 09:18:44;;;;;;;12.43;12.03;;;9.60;99.90;;;;;;5072808;28;20211;-64
2023/12/09 09:21:09;;;;;;;11.47;11.00;;;9.60;99.90;;;;;;5071379;28;20237;-65
2023/12/09 09:23:36;;;;;;;11.70;11.30;;;9.60;99.90;;;;;;5072634;28;20223;-66
2023/12/09 09:26:04;;;;;;;11.80;11.37;;;9.70;99.90;;;;;;5072154;28;20222;-65
2023/12/09 09:28:31;;;;;;;12.17;11.67;;;9.70;99.90;;;;;;5072358;28;20257;-65
2023/12/09 09:30:57;;;;;;;11.83;11.43;;;9.70;99.90;;;;;;5071368;28;20227;-65
2023/12/09 09:33:26;;;;;;;11.67;11.27;;;9.70;99.90;;;;;;5071924;28;20203;-64
2023/12/09 09:35:54;;;;;;;11.77;11.37;;;9.70;99.90;;;;;;5076380;28;20296;-64
2023/12/09 09:38:21;;;;;;;11.90;11.50;;;9.80;99.90;;;;;;5077473;28;20207;-64
2023/12/09 09:40:48;;;;;;;11.80;11.40;;;9.80;99.90;;;;;;5079350;28;20211;-65
2023/12/09 09:43:21;;;;;;;12.10;11.70;;;9.90;99.90;;;;;;5078162;28;20211;-65
2023/12/09 09:45:48;;;;;;;12.47;12.00;;;9.90;99.90;;;;;;5083030;28;20207;-63
2023/12/09 09:48:17;;;;;;;12.00;11.60;;;9.90;99.90;;;;;;5076277;28;20265;-64
2023/12/09 09:50:47;;;;;;;11.93;11.53;;;9.90;99.90;;;;;;5074603;28;20238;-65
2023/12/09 09:53:20;;;;;;;11.60;11.20;;;9.90;99.90;;;;;;5074781;28;20238;-65
2023/12/09 09:55:48;;;;;;;11.50;11.10;;;10.00;99.90;;;;;;5074479;28;20203;-66
2023/12/09 09:58:16;;;;;;;11.63;11.23;;;10.00;99.90;;;;;;5074674;28;20689;-65
2023/12/09 10:00:43;;;;;;;10.93;10.53;;;10.00;99.90;;;;;;5071781;28;20199;-64
2023/12/09 10:03:09;;;;;;;11.87;11.47;;;10.00;99.90;;;;;;5074107;28;20245;-68
2023/12/09 10:05:37;;;;;;;12.03;11.63;;;10.00;99.90;;;;;;5074653;28;20666;-66
2023/12/09 10:08:06;;;;;;;12.10;11.70;;;10.00;99.90;;;;;;5074100;28;20207;-65
2023/12/09 10:10:34;;;;;;;12.07;11.67;;;10.00;99.90;;;;;;5073673;28;20299;-64
2023/12/09 10:13:01;;;;;;;12.23;11.83;;;10.00;99.90;;;;;;5073828;28;20215;-65
2023/12/09 10:15:28;;;;;;;12.60;12.20;;;10.00;99.90;;;;;;5073375;28;20702;-64
2023/12/09 10:18:00;;;;;;;12.20;11.80;;;10.00;99.90;;;;;;5073457;28;20238;-64
2023/12/09 10:20:30;;;;;;;11.73;11.33;;;10.00;99.90;;;;;;5074079;28;20207;-66
2023/12/09 10:22:58;;;;;;;11.47;11.07;;;10.00;99.90;;;;;;5076798;28;20564;-65
2023/12/09 10:25:27;;;;;;;11.90;11.50;;;10.00;99.90;;;;;;5076118;28;20211;-65
2023/12/09 10:27:53;;;;;;;12.30;11.80;;;10.00;99.90;;;;;;5070360;28;20326;-66
2023/12/09 10:30:20;;;;;;;12.80;12.40;;;9.90;99.90;;;;;;5073005;28;20227;-66
2023/12/09 10:32:48;;;;;;;12.33;11.83;;;9.90;99.90;;;;;;5074393;28;20195;-64
2023/12/09 10:35:17;;;;;;;12.80;12.30;;;9.90;99.90;;;;;;5075162;28;20202;-64
2023/12/09 10:37:44;;;;;;;11.83;11.43;;;10.00;99.90;;;;;;5073922;28;20276;-64
2023/12/09 10:40:11;;;;;;;12.47;12.03;;;10.00;99.90;;;;;;5073724;28;20203;-64
2023/12/09 10:42:40;;;;;;;12.80;12.30;;;10.00;99.90;;;;;;5074061;28;20203;-67
2023/12/09 10:45:08;;;;;;;11.93;11.53;;;10.00;99.90;;;;;;5072019;28;20222;-66
2023/12/09 10:47:35;;;;;;;11.53;11.13;;;9.90;99.90;;;;;;5073844;28;20247;-67
2023/12/09 10:50:03;;;;;;;12.67;12.17;;;9.90;99.90;;;;;;5070630;28;20677;-67
2023/12/09 10:52:30;;;;;;;12.13;11.70;;;9.90;99.90;;;;;;5072562;28;20218;-66
2023/12/09 10:54:57;;;;;;;11.67;11.27;;;9.90;99.90;;;;;;5073642;28;20230;-66
2023/12/09 10:57:24;;;;;;;12.27;11.87;;;9.90;99.90;;;;;;5073359;28;20226;-65
2023/12/09 10:59:53;;;;;;;11.93;11.53;;;9.90;99.90;;;;;;5073164;28;20575;-65
2023/12/09 11:02:21;;;;;;;11.97;11.57;;;9.90;99.90;;;;;;5073387;28;20203;-66
2023/12/09 11:04:49;;;;;;;12.30;11.90;;;9.90;99.90;;;;;;5072592;28;20216;-68
2023/12/09 11:07:17;;;;;;;12.20;11.80;;;9.90;99.90;;;;;;5071659;28;20219;-66
2023/12/09 11:09:45;;;;;;;11.80;11.40;;;9.80;99.90;;;;;;5073592;28;20210;-66
2023/12/09 11:12:23;;;;;;;12.10;11.70;;;9.80;99.90;;;;;;5072061;28;20234;-66
2023/12/09 11:14:49;;;;;;;11.87;11.47;;;9.90;99.90;;;;;;5074694;28;20646;-69
2023/12/09 11:17:36;;;;;;;12.23;11.83;;;9.90;99.90;;;;;;5076835;28;20230;-68
2023/12/09 11:20:10;;;;;;;12.37;11.97;;;9.90;99.90;;;;;;5073181;28;20210;-67
2023/12/09 11:22:38;;;;;;;12.40;11.93;;;10.00;99.90;;;;;;5073078;28;20208;-69
2023/12/09 11:25:08;;;;;;;12.07;11.67;;;10.00;99.90;;;;;;5072818;28;20215;-68
2023/12/09 11:27:35;;;;;;;11.80;11.40;;;10.10;99.90;;;;;;5073919;28;20261;-68
2023/12/09 11:30:02;;;;;;;12.13;11.73;;;10.10;99.90;;;;;;5074043;28;20592;-67
2023/12/09 11:32:30;;;;;;;11.90;11.50;;;10.20;99.90;;;;;;5073375;28;20227;-68
2023/12/09 11:34:59;;;;;;;11.37;10.97;;;10.30;99.90;;;;;;5073060;28;20235;-68
2023/12/09 11:37:27;;;;;;;11.47;11.07;;;10.40;99.90;;;;;;5072653;28;20721;-68
2023/12/09 11:39:56;;;;;;;11.67;11.17;;;10.50;99.90;;;;;;5072034;28;20708;-69
2023/12/09 11:42:23;;;;;;;11.30;10.90;;;10.50;99.90;;;;;;5071363;28;20200;-69
2023/12/09 11:44:51;;;;;;;12.03;11.47;;;10.60;99.90;;;;;;5072434;28;20290;-69
2023/12/09 11:47:19;;;;;;;11.23;10.83;;;10.80;99.90;;;;;;5072187;28;20223;-69
2023/12/09 11:49:47;;;;;;;11.30;10.90;;;10.90;99.90;;;;;;5072354;28;20322;-68
2023/12/09 11:52:15;;;;;;;12.30;11.80;;;10.90;99.90;;;;;;5075086;28;20220;-69
2023/12/09 11:54:42;;;;;;;11.93;11.53;;;11.00;99.90;;;;;;5079455;28;20211;-69
2023/12/09 11:57:08;;;;;;;12.83;12.40;;;11.00;99.90;;;;;;5077431;28;20236;-68
2023/12/09 11:59:37;;;;;;;13.73;13.23;;;11.10;99.90;;;;;;5072915;28;20203;-68
2023/12/09 12:02:04;;;;;;;12.60;12.20;;;11.20;99.90;;;;;;5074219;28;20195;-68
2023/12/09 12:04:33;;;;;;;13.20;12.70;;;11.20;99.90;;;;;;5073826;28;20199;-69
2023/12/09 12:07:00;;;;;;;12.43;12.03;;;11.20;99.90;;;;;;5081878;28;20219;-69
2023/12/09 12:09:28;;;;;;;15.10;14.60;;;11.20;99.90;;;;;;5084757;28;20200;-68
2023/12/09 12:11:56;;;;;;;13.00;12.57;;;11.20;99.90;;;;;;5085789;28;20216;-69
2023/12/09 12:14:22;;;;;;;15.40;14.80;;;11.20;99.90;;;;;;5086204;28;20275;-69
2023/12/09 12:16:49;;;;;;;13.23;12.73;;;11.20;99.90;;;;;;5084378;28;20273;-68
2023/12/09 12:19:17;;;;;;;14.07;13.57;;;11.20;99.90;;;;;;5081591;28;20226;-68
2023/12/09 12:21:44;;;;;;;14.60;14.10;;;11.30;99.90;;;;;;5081470;28;20199;-67
2023/12/09 12:24:11;;;;;;;14.57;14.07;;;11.30;99.90;;;;;;5074310;28;20295;-69
2023/12/09 12:26:39;;;;;;;17.53;16.93;;;11.30;99.90;;;;;;5076149;28;20226;-67
2023/12/09 12:29:09;;;;;;;13.50;13.00;;;11.40;99.90;;;;;;5078178;28;20277;-67
2023/12/09 12:31:36;;;;;;;13.40;12.90;;;11.40;99.90;;;;;;5080050;28;20234;-66
2023/12/09 12:34:15;;;;;;;14.20;13.70;;;11.40;99.90;;;;;;5076104;28;20308;-67
2023/12/09 12:36:41;;;;;;;13.57;13.07;;;11.40;99.90;;;;;;5076800;28;20235;-68